Time;durP1;ratioP1;P1;durP2;ratioP2;P2;SDS_P1;SDS_P2;PMS_P1;PMS_P2;Temp;Humidity;BMP_temperature;BMP_pressure;BME280_temperature;BME280_humidity;BME280_pressure;Samples;Min_cycle;Max_cycle;Signal;HPM_P1;HPM_P2
2021/12/11 12:18:51;;;;;;;5.20;4.40;;;2.00;99.90;;;;;;5132752;27;20274;-77
2021/12/11 12:21:18;;;;;;;4.33;3.17;;;2.10;99.90;;;;;;5113773;28;20412;-77
2021/12/11 12:23:45;;;;;;;4.10;3.70;;;1.90;99.90;;;;;;5132130;28;20224;-77
2021/12/11 12:26:22;;;;;;;14.50;6.53;;;1.90;99.90;;;;;;5132161;27;20466;-78
2021/12/11 12:28:48;;;;;;;12.70;4.37;;;1.90;99.90;;;;;;5131232;28;20416;-78
2021/12/11 12:31:25;;;;;;;11.73;4.40;;;2.00;99.90;;;;;;5131788;27;20417;-76
2021/12/11 12:33:51;;;;;;;15.60;6.67;;;1.90;99.90;;;;;;5132067;27;20956;-77
2021/12/11 12:36:18;;;;;;;18.63;8.90;;;2.00;99.90;;;;;;5131946;27;20409;-76
2021/12/11 12:38:48;;;;;;;22.93;11.73;;;2.00;99.90;;;;;;5131831;28;20203;-77
2021/12/11 12:41:23;;;;;;;27.83;12.57;;;2.00;99.90;;;;;;5132318;28;20472;-77
2021/12/11 12:44:17;;;;;;;20.97;10.77;;;1.90;99.90;;;;;;5129200;28;20408;-77
2021/12/11 12:46:56;;;;;;;23.30;11.23;;;1.90;99.90;;;;;;5130717;27;20894;-77
2021/12/11 12:49:29;;;;;;;8.90;6.43;;;2.00;99.90;;;;;;5131637;27;20484;-77
2021/12/11 12:51:56;;;;;;;14.50;9.80;;;2.10;99.90;;;;;;5131302;27;20397;-77
2021/12/11 12:54:24;;;;;;;9.67;6.40;;;2.10;99.90;;;;;;5130552;27;20982;-77
2021/12/11 12:57:11;;;;;;;13.33;10.73;;;2.10;99.90;;;;;;5133357;27;20490;-76
2021/12/11 12:59:42;;;;;;;5.67;4.83;;;2.00;99.90;;;;;;5134708;27;20388;-77
2021/12/11 13:02:12;;;;;;;3.90;3.57;;;2.00;99.90;;;;;;5130620;27;20396;-77
2021/12/11 13:04:46;;;;;;;6.47;5.47;;;1.90;99.90;;;;;;5130557;27;20983;-76
2021/12/11 13:07:14;;;;;;;3.93;3.57;;;1.80;99.90;;;;;;5131227;27;20460;-76
2021/12/11 13:09:50;;;;;;;5.97;4.70;;;1.80;99.90;;;;;;5129988;28;20408;-76
2021/12/11 13:12:24;;;;;;;5.47;4.73;;;1.60;99.90;;;;;;5130952;27;20756;-76
2021/12/11 13:14:52;;;;;;;8.70;6.40;;;1.70;99.90;;;;;;5131026;27;20452;-76
2021/12/11 13:17:28;;;;;;;8.70;6.67;;;1.70;99.90;;;;;;5130809;27;20558;-78
2021/12/11 13:20:02;;;;;;;3.83;3.43;;;1.70;99.90;;;;;;5131146;27;20881;-77
2021/12/11 13:22:33;;;;;;;5.83;4.83;;;1.70;99.90;;;;;;5131318;27;20431;-77
2021/12/11 13:25:09;;;;;;;4.67;3.10;;;1.70;99.90;;;;;;5129753;28;20424;-77
2021/12/11 13:27:35;;;;;;;4.60;4.00;;;1.70;99.90;;;;;;5130212;28;20420;-76
2021/12/11 13:30:06;;;;;;;7.33;4.83;;;1.60;99.90;;;;;;5118107;27;20412;-77
2021/12/11 13:32:33;;;;;;;3.80;3.30;;;1.60;99.90;;;;;;5117280;28;20233;-77
2021/12/11 13:35:06;;;;;;;5.67;5.07;;;1.60;99.90;;;;;;5115643;28;20449;-77
2021/12/11 13:37:34;;;;;;;3.63;3.33;;;1.60;99.90;;;;;;5115662;28;20464;-77
2021/12/11 13:40:03;;;;;;;4.43;3.97;;;1.70;99.90;;;;;;5116648;28;20402;-76
2021/12/11 13:42:31;;;;;;;5.60;5.10;;;1.60;99.90;;;;;;5115677;28;20421;-77
2021/12/11 13:45:07;;;;;;;6.13;5.27;;;1.70;99.90;;;;;;5115436;28;20524;-77
2021/12/11 13:47:35;;;;;;;5.20;4.43;;;1.80;99.90;;;;;;5117035;28;20492;-78
2021/12/11 13:50:10;;;;;;;5.43;4.93;;;1.70;99.90;;;;;;5116667;28;20408;-77
2021/12/11 13:52:37;;;;;;;3.73;3.43;;;1.60;99.90;;;;;;5117150;28;20484;-76
2021/12/11 13:55:04;;;;;;;4.00;3.60;;;1.60;99.90;;;;;;5115316;28;20473;-76
2021/12/11 13:57:30;;;;;;;4.73;4.30;;;1.60;99.90;;;;;;5115384;28;20791;-76
2021/12/11 14:00:00;;;;;;;6.23;5.33;;;1.60;99.90;;;;;;5116592;28;20402;-76
2021/12/11 14:02:27;;;;;;;11.93;8.37;;;1.50;99.90;;;;;;5116441;28;20397;-76
2021/12/11 14:04:54;;;;;;;7.20;5.13;;;1.50;99.90;;;;;;5115480;28;20902;-76
2021/12/11 14:07:22;;;;;;;5.43;4.70;;;1.60;99.90;;;;;;5116602;28;20413;-76
2021/12/11 14:09:55;;;;;;;15.07;8.60;;;1.50;99.90;;;;;;5115037;28;20409;-76
2021/12/11 14:12:24;;;;;;;13.07;8.63;;;1.50;99.90;;;;;;5116227;28;20405;-76
2021/12/11 14:14:51;;;;;;;13.57;8.17;;;1.50;99.90;;;;;;5116199;28;20827;-76
2021/12/11 14:17:17;;;;;;;6.63;4.60;;;1.50;99.90;;;;;;5114680;28;20487;-76
2021/12/11 14:19:44;;;;;;;23.13;11.57;;;1.40;99.90;;;;;;5116277;27;20393;-76
2021/12/11 14:22:11;;;;;;;13.30;7.13;;;1.40;99.90;;;;;;5116059;28;20405;-77
2021/12/11 14:24:37;;;;;;;15.03;6.40;;;;;;;;;;5116075;28;20426;-76
2021/12/11 14:27:06;;;;;;;26.33;11.77;;;1.30;99.90;;;;;;5116188;28;20409;-77
2021/12/11 14:29:32;;;;;;;44.00;18.07;;;1.30;99.90;;;;;;5116086;28;20405;-76
2021/12/11 14:31:59;;;;;;;24.80;10.63;;;1.30;99.90;;;;;;5115847;28;20406;-76
2021/12/11 14:34:26;;;;;;;37.33;15.97;;;1.20;99.90;;;;;;5116065;28;20433;-76
2021/12/11 14:36:54;;;;;;;10.20;7.33;;;1.30;99.90;;;;;;5115876;28;20961;-77
2021/12/11 14:39:24;;;;;;;8.03;5.77;;;1.40;99.90;;;;;;5115989;28;20409;-77
2021/12/11 14:41:51;;;;;;;17.20;10.00;;;1.30;99.90;;;;;;5113407;28;20405;-76
2021/12/11 14:44:25;;;;;;;16.97;9.60;;;1.30;99.90;;;;;;5115478;28;20882;-76
2021/12/11 14:46:54;;;;;;;30.97;13.97;;;1.30;99.90;;;;;;5115623;28;20404;-76
2021/12/11 14:49:23;;;;;;;19.10;9.70;;;1.30;99.90;;;;;;5114630;28;20420;-77
2021/12/11 14:51:48;;;;;;;13.27;8.03;;;1.20;99.90;;;;;;5114250;28;20834;-77
2021/12/11 14:54:15;;;;;;;24.23;11.90;;;1.20;99.90;;;;;;5115358;28;20516;-77
2021/12/11 14:56:45;;;;;;;11.73;7.50;;;1.20;99.90;;;;;;5114122;28;20179;-76
2021/12/11 14:59:16;;;;;;;12.63;8.30;;;1.20;99.90;;;;;;5114262;28;20416;-76
2021/12/11 15:01:55;;;;;;;7.83;6.10;;;1.20;99.90;;;;;;5114074;28;20587;-77
2021/12/11 15:04:27;;;;;;;12.90;7.87;;;1.40;99.90;;;;;;5115414;28;20437;-77
2021/12/11 15:06:53;;;;;;;10.90;7.70;;;1.20;99.90;;;;;;5113974;28;20437;-77
2021/12/11 15:09:20;;;;;;;11.70;7.63;;;1.10;99.90;;;;;;5115155;28;20442;-77
2021/12/11 15:11:48;;;;;;;12.40;8.47;;;1.80;99.90;;;;;;5115097;28;20424;-77
2021/12/11 15:14:19;;;;;;;8.53;6.87;;;2.50;99.90;;;;;;5113761;28;20866;-77
2021/12/11 15:16:47;;;;;;;10.70;8.60;;;1.10;99.90;;;;;;5113776;28;20437;-77
2021/12/11 15:19:13;;;;;;;10.67;7.53;;;1.10;99.90;;;;;;5115165;27;20897;-77
2021/12/11 15:21:40;;;;;;;12.97;8.47;;;1.10;99.90;;;;;;5114794;28;20405;-77
2021/12/11 15:24:06;;;;;;;13.63;8.03;;;1.10;99.90;;;;;;5118079;28;20183;-77
2021/12/11 15:26:37;;;;;;;26.10;14.10;;;1.10;99.90;;;;;;5115146;28;20417;-77
2021/12/11 15:29:04;;;;;;;41.77;20.07;;;1.00;99.90;;;;;;5115039;28;20454;-77
2021/12/11 15:31:34;;;;;;;95.83;42.50;;;1.00;99.90;;;;;;5114558;28;20891;-77
2021/12/11 15:34:05;;;;;;;30.03;18.40;;;1.00;99.90;;;;;;5114478;27;20433;-77
2021/12/11 15:36:33;;;;;;;117.30;49.90;;;1.00;99.90;;;;;;5114790;28;20393;-77
2021/12/11 15:39:04;;;;;;;102.80;43.23;;;1.10;99.90;;;;;;5114687;28;20424;-77
2021/12/11 15:41:30;;;;;;;165.27;64.03;;;1.00;99.90;;;;;;5114442;28;20477;-77
2021/12/11 15:43:56;;;;;;;28.17;14.10;;;1.00;99.90;;;;;;5114664;28;20520;-77
2021/12/11 15:46:25;;;;;;;35.80;15.57;;;1.50;99.90;;;;;;5113356;28;20180;-77
2021/12/11 15:48:53;;;;;;;41.73;21.80;;;1.00;99.90;;;;;;5113834;28;20504;-77
2021/12/11 15:51:23;;;;;;;31.70;15.87;;;1.60;99.90;;;;;;5114166;28;20417;-77
2021/12/11 15:53:49;;;;;;;43.50;21.07;;;1.00;99.90;;;;;;5113091;28;20421;-77
2021/12/11 15:56:16;;;;;;;35.93;22.10;;;1.00;99.90;;;;;;5113147;28;20414;-77
2021/12/11 15:58:45;;;;;;;28.73;20.37;;;1.00;99.90;;;;;;5113069;28;20462;-78
2021/12/11 16:01:16;;;;;;;18.20;14.50;;;1.00;99.90;;;;;;5114094;28;20458;-77
2021/12/11 16:03:43;;;;;;;13.87;11.80;;;1.00;99.90;;;;;;5112935;28;20409;-77
2021/12/11 16:06:13;;;;;;;13.77;10.67;;;1.00;99.90;;;;;;5113112;28;20409;-77
2021/12/11 16:08:39;;;;;;;26.80;21.43;;;1.00;99.90;;;;;;5112967;28;20946;-77
